sensor_id;sensor_type;location;lat;lon;timestamp;temperature;humidity
23560;DHT22;11958;50.836;4.438;2023-05-08T00:01:54;16.20;91.30
23560;DHT22;11958;50.836;4.438;2023-05-08T00:04:19;16.30;91.40
23560;DHT22;11958;50.836;4.438;2023-05-08T00:06:46;16.50;90.00
23560;DHT22;11958;50.836;4.438;2023-05-08T00:09:11;16.30;90.00
23560;DHT22;11958;50.836;4.438;2023-05-08T00:11:37;16.20;90.50
23560;DHT22;11958;50.836;4.438;2023-05-08T00:14:03;15.90;91.20
23560;DHT22;11958;50.836;4.438;2023-05-08T00:16:30;16.00;91.10
23560;DHT22;11958;50.836;4.438;2023-05-08T00:18:56;16.30;90.00
23560;DHT22;11958;50.836;4.438;2023-05-08T00:21:22;16.10;89.80
23560;DHT22;11958;50.836;4.438;2023-05-08T00:23:47;16.00;90.40
23560;DHT22;11958;50.836;4.438;2023-05-08T00:26:13;16.00;90.30
23560;DHT22;11958;50.836;4.438;2023-05-08T00:28:38;15.90;90.90
23560;DHT22;11958;50.836;4.438;2023-05-08T00:31:04;16.00;90.60
23560;DHT22;11958;50.836;4.438;2023-05-08T00:33:30;15.90;90.20
23560;DHT22;11958;50.836;4.438;2023-05-08T00:36:03;15.90;90.20
23560;DHT22;11958;50.836;4.438;2023-05-08T00:38:33;15.80;90.10
23560;DHT22;11958;50.836;4.438;2023-05-08T00:41:00;15.80;90.10
23560;DHT22;11958;50.836;4.438;2023-05-08T00:43:26;15.60;90.80
23560;DHT22;11958;50.836;4.438;2023-05-08T00:45:55;15.50;91.20
23560;DHT22;11958;50.836;4.438;2023-05-08T00:48:22;15.80;90.80
23560;DHT22;11958;50.836;4.438;2023-05-08T00:50:49;15.80;90.50
23560;DHT22;11958;50.836;4.438;2023-05-08T00:53:16;15.70;91.00
23560;DHT22;11958;50.836;4.438;2023-05-08T00:55:43;15.70;91.20
23560;DHT22;11958;50.836;4.438;2023-05-08T00:58:10;15.70;91.80
23560;DHT22;11958;50.836;4.438;2023-05-08T01:00:38;15.60;91.60
23560;DHT22;11958;50.836;4.438;2023-05-08T01:03:04;15.30;94.30
23560;DHT22;11958;50.836;4.438;2023-05-08T01:05:29;15.20;95.50
23560;DHT22;11958;50.836;4.438;2023-05-08T01:07:56;15.60;93.70
23560;DHT22;11958;50.836;4.438;2023-05-08T01:10:22;15.60;92.40
23560;DHT22;11958;50.836;4.438;2023-05-08T01:12:53;15.60;93.20
23560;DHT22;11958;50.836;4.438;2023-05-08T01:15:28;15.60;93.50
23560;DHT22;11958;50.836;4.438;2023-05-08T01:18:18;16.10;92.50
23560;DHT22;11958;50.836;4.438;2023-05-08T01:34:31;15.60;94.10
23560;DHT22;11958;50.836;4.438;2023-05-08T01:37:00;15.90;95.10
23560;DHT22;11958;50.836;4.438;2023-05-08T01:42:03;16.10;93.20
23560;DHT22;11958;50.836;4.438;2023-05-08T01:44:40;16.00;93.40
23560;DHT22;11958;50.836;4.438;2023-05-08T01:47:09;15.80;93.90
23560;DHT22;11958;50.836;4.438;2023-05-08T01:49:43;15.80;94.40
23560;DHT22;11958;50.836;4.438;2023-05-08T01:52:14;15.90;94.80
23560;DHT22;11958;50.836;4.438;2023-05-08T01:54:49;16.00;94.40
23560;DHT22;11958;50.836;4.438;2023-05-08T01:57:17;16.10;94.70
23560;DHT22;11958;50.836;4.438;2023-05-08T01:59:45;15.90;94.00
23560;DHT22;11958;50.836;4.438;2023-05-08T02:02:12;15.80;94.20
23560;DHT22;11958;50.836;4.438;2023-05-08T02:04:40;15.90;94.80
23560;DHT22;11958;50.836;4.438;2023-05-08T02:07:07;16.00;94.50
23560;DHT22;11958;50.836;4.438;2023-05-08T02:09:33;15.90;94.30
23560;DHT22;11958;50.836;4.438;2023-05-08T02:12:00;15.90;95.30
23560;DHT22;11958;50.836;4.438;2023-05-08T02:14:28;16.00;94.90
23560;DHT22;11958;50.836;4.438;2023-05-08T02:16:56;15.90;95.30
23560;DHT22;11958;50.836;4.438;2023-05-08T02:19:25;16.20;94.00
23560;DHT22;11958;50.836;4.438;2023-05-08T02:21:52;16.00;93.90
23560;DHT22;11958;50.836;4.438;2023-05-08T02:24:19;16.10;93.10
23560;DHT22;11958;50.836;4.438;2023-05-08T02:26:46;16.30;93.10
23560;DHT22;11958;50.836;4.438;2023-05-08T02:29:13;16.30;92.20
23560;DHT22;11958;50.836;4.438;2023-05-08T02:31:40;16.20;93.50
23560;DHT22;11958;50.836;4.438;2023-05-08T02:34:08;16.10;93.40
23560;DHT22;11958;50.836;4.438;2023-05-08T02:36:35;16.20;92.90
23560;DHT22;11958;50.836;4.438;2023-05-08T02:39:02;16.00;93.80
23560;DHT22;11958;50.836;4.438;2023-05-08T02:41:29;15.90;93.80
23560;DHT22;11958;50.836;4.438;2023-05-08T02:43:57;16.00;94.00
23560;DHT22;11958;50.836;4.438;2023-05-08T02:46:36;16.00;93.70
23560;DHT22;11958;50.836;4.438;2023-05-08T02:52:13;16.00;93.60
23560;DHT22;11958;50.836;4.438;2023-05-08T02:55:04;15.90;93.70
23560;DHT22;11958;50.836;4.438;2023-05-08T02:57:56;15.90;94.00
23560;DHT22;11958;50.836;4.438;2023-05-08T03:00:29;15.90;93.90
23560;DHT22;11958;50.836;4.438;2023-05-08T03:03:04;15.90;93.60
23560;DHT22;11958;50.836;4.438;2023-05-08T03:05:34;15.90;93.30
23560;DHT22;11958;50.836;4.438;2023-05-08T03:08:09;15.80;92.80
23560;DHT22;11958;50.836;4.438;2023-05-08T03:10:40;15.80;92.80
23560;DHT22;11958;50.836;4.438;2023-05-08T03:13:08;15.70;93.10
23560;DHT22;11958;50.836;4.438;2023-05-08T03:15:44;15.70;93.30
23560;DHT22;11958;50.836;4.438;2023-05-08T03:18:13;15.60;93.20
23560;DHT22;11958;50.836;4.438;2023-05-08T03:20:43;15.50;93.30
23560;DHT22;11958;50.836;4.438;2023-05-08T03:23:11;15.40;94.10
23560;DHT22;11958;50.836;4.438;2023-05-08T03:25:40;15.40;93.80
23560;DHT22;11958;50.836;4.438;2023-05-08T03:28:06;15.20;95.90
23560;DHT22;11958;50.836;4.438;2023-05-08T03:30:36;15.20;95.90
23560;DHT22;11958;50.836;4.438;2023-05-08T03:33:06;15.30;96.10
23560;DHT22;11958;50.836;4.438;2023-05-08T03:35:36;15.30;95.70
23560;DHT22;11958;50.836;4.438;2023-05-08T03:38:03;15.30;95.70
23560;DHT22;11958;50.836;4.438;2023-05-08T03:48:34;15.20;95.40
23560;DHT22;11958;50.836;4.438;2023-05-08T03:51:06;15.30;95.50
23560;DHT22;11958;50.836;4.438;2023-05-08T03:53:32;15.30;95.40
23560;DHT22;11958;50.836;4.438;2023-05-08T03:55:59;15.30;95.90
23560;DHT22;11958;50.836;4.438;2023-05-08T04:01:09;15.30;95.40
23560;DHT22;11958;50.836;4.438;2023-05-08T04:08:54;15.40;95.00
23560;DHT22;11958;50.836;4.438;2023-05-08T04:14:19;15.40;95.10
23560;DHT22;11958;50.836;4.438;2023-05-08T04:17:02;15.40;94.80
23560;DHT22;11958;50.836;4.438;2023-05-08T04:19:37;15.40;93.20
23560;DHT22;11958;50.836;4.438;2023-05-08T04:22:07;15.40;94.40
23560;DHT22;11958;50.836;4.438;2023-05-08T04:24:36;15.70;92.50
23560;DHT22;11958;50.836;4.438;2023-05-08T04:27:03;15.60;91.90
23560;DHT22;11958;50.836;4.438;2023-05-08T04:29:30;15.30;93.60
23560;DHT22;11958;50.836;4.438;2023-05-08T04:31:57;15.30;94.00
23560;DHT22;11958;50.836;4.438;2023-05-08T04:34:25;15.40;93.80
23560;DHT22;11958;50.836;4.438;2023-05-08T04:36:51;15.40;93.80
23560;DHT22;11958;50.836;4.438;2023-05-08T04:39:16;15.30;94.00
23560;DHT22;11958;50.836;4.438;2023-05-08T04:41:42;15.20;94.20
23560;DHT22;11958;50.836;4.438;2023-05-08T04:44:08;15.30;94.20
23560;DHT22;11958;50.836;4.438;2023-05-08T04:46:33;15.20;94.40
23560;DHT22;11958;50.836;4.438;2023-05-08T04:48:59;15.20;94.80
23560;DHT22;11958;50.836;4.438;2023-05-08T04:51:25;15.20;94.70
23560;DHT22;11958;50.836;4.438;2023-05-08T04:53:50;15.30;94.60
23560;DHT22;11958;50.836;4.438;2023-05-08T04:56:16;15.30;94.70
23560;DHT22;11958;50.836;4.438;2023-05-08T04:58:44;15.40;93.60
23560;DHT22;11958;50.836;4.438;2023-05-08T05:01:10;15.30;94.40
23560;DHT22;11958;50.836;4.438;2023-05-08T05:03:36;15.30;94.50
23560;DHT22;11958;50.836;4.438;2023-05-08T05:06:01;15.30;94.70
23560;DHT22;11958;50.836;4.438;2023-05-08T05:08:27;15.40;94.40
23560;DHT22;11958;50.836;4.438;2023-05-08T05:10:53;15.60;92.60
23560;DHT22;11958;50.836;4.438;2023-05-08T05:13:19;15.60;92.10
23560;DHT22;11958;50.836;4.438;2023-05-08T05:15:45;15.70;91.40
23560;DHT22;11958;50.836;4.438;2023-05-08T05:18:11;15.60;92.10
23560;DHT22;11958;50.836;4.438;2023-05-08T05:20:37;15.60;92.50
23560;DHT22;11958;50.836;4.438;2023-05-08T05:23:03;15.80;91.80
23560;DHT22;11958;50.836;4.438;2023-05-08T05:25:29;15.80;92.00
23560;DHT22;11958;50.836;4.438;2023-05-08T05:27:55;15.70;92.00
23560;DHT22;11958;50.836;4.438;2023-05-08T05:30:20;15.80;91.40
23560;DHT22;11958;50.836;4.438;2023-05-08T05:32:46;15.80;91.40
23560;DHT22;11958;50.836;4.438;2023-05-08T05:35:12;15.70;91.60
23560;DHT22;11958;50.836;4.438;2023-05-08T05:37:41;15.70;91.80
23560;DHT22;11958;50.836;4.438;2023-05-08T05:40:07;15.80;91.80
23560;DHT22;11958;50.836;4.438;2023-05-08T05:42:33;15.90;91.40
23560;DHT22;11958;50.836;4.438;2023-05-08T05:44:58;15.90;91.90
23560;DHT22;11958;50.836;4.438;2023-05-08T05:47:26;15.90;91.90
23560;DHT22;11958;50.836;4.438;2023-05-08T05:49:51;16.20;91.40
23560;DHT22;11958;50.836;4.438;2023-05-08T05:52:17;16.50;89.60
23560;DHT22;11958;50.836;4.438;2023-05-08T05:54:43;16.40;89.60
23560;DHT22;11958;50.836;4.438;2023-05-08T05:57:08;16.30;89.70
23560;DHT22;11958;50.836;4.438;2023-05-08T05:59:34;16.40;89.00
23560;DHT22;11958;50.836;4.438;2023-05-08T06:02:00;16.60;88.10
23560;DHT22;11958;50.836;4.438;2023-05-08T06:04:25;16.80;86.80
23560;DHT22;11958;50.836;4.438;2023-05-08T06:06:51;16.60;86.80
23560;DHT22;11958;50.836;4.438;2023-05-08T06:09:17;16.70;86.80
23560;DHT22;11958;50.836;4.438;2023-05-08T06:11:43;16.70;86.60
23560;DHT22;11958;50.836;4.438;2023-05-08T06:14:08;16.60;87.80
23560;DHT22;11958;50.836;4.438;2023-05-08T06:16:34;16.60;87.80
23560;DHT22;11958;50.836;4.438;2023-05-08T06:19:00;16.60;88.10
23560;DHT22;11958;50.836;4.438;2023-05-08T06:21:25;16.60;87.90
23560;DHT22;11958;50.836;4.438;2023-05-08T06:23:53;16.60;87.80
23560;DHT22;11958;50.836;4.438;2023-05-08T06:26:19;16.50;88.20
23560;DHT22;11958;50.836;4.438;2023-05-08T06:28:45;16.60;88.30
23560;DHT22;11958;50.836;4.438;2023-05-08T06:31:11;16.60;87.40
23560;DHT22;11958;50.836;4.438;2023-05-08T06:33:36;16.70;87.70
23560;DHT22;11958;50.836;4.438;2023-05-08T06:36:04;16.70;87.30
23560;DHT22;11958;50.836;4.438;2023-05-08T06:38:30;16.80;87.10
23560;DHT22;11958;50.836;4.438;2023-05-08T06:40:56;16.70;87.00
23560;DHT22;11958;50.836;4.438;2023-05-08T06:43:22;16.60;87.60
23560;DHT22;11958;50.836;4.438;2023-05-08T06:45:47;16.70;87.50
23560;DHT22;11958;50.836;4.438;2023-05-08T06:48:13;16.60;87.80
23560;DHT22;11958;50.836;4.438;2023-05-08T06:50:39;16.70;87.60
23560;DHT22;11958;50.836;4.438;2023-05-08T06:53:05;16.80;88.20
23560;DHT22;11958;50.836;4.438;2023-05-08T06:55:32;16.80;88.00
23560;DHT22;11958;50.836;4.438;2023-05-08T06:57:57;16.80;87.00
23560;DHT22;11958;50.836;4.438;2023-05-08T07:00:23;16.80;87.20
23560;DHT22;11958;50.836;4.438;2023-05-08T07:02:49;17.00;86.60
23560;DHT22;11958;50.836;4.438;2023-05-08T07:05:15;16.80;86.50
23560;DHT22;11958;50.836;4.438;2023-05-08T07:07:42;16.70;87.20
23560;DHT22;11958;50.836;4.438;2023-05-08T07:10:08;16.70;87.40
23560;DHT22;11958;50.836;4.438;2023-05-08T07:12:34;16.70;87.50
23560;DHT22;11958;50.836;4.438;2023-05-08T07:14:59;16.60;87.90
23560;DHT22;11958;50.836;4.438;2023-05-08T07:17:25;16.40;88.40
23560;DHT22;11958;50.836;4.438;2023-05-08T07:19:51;16.50;88.80
23560;DHT22;11958;50.836;4.438;2023-05-08T07:22:17;16.40;88.80
23560;DHT22;11958;50.836;4.438;2023-05-08T07:24:42;16.40;89.20
23560;DHT22;11958;50.836;4.438;2023-05-08T07:27:08;16.60;88.80
23560;DHT22;11958;50.836;4.438;2023-05-08T07:29:34;16.60;87.80
23560;DHT22;11958;50.836;4.438;2023-05-08T07:32:06;16.80;87.40
23560;DHT22;11958;50.836;4.438;2023-05-08T07:34:32;16.90;86.90
23560;DHT22;11958;50.836;4.438;2023-05-08T07:36:58;16.60;86.40
23560;DHT22;11958;50.836;4.438;2023-05-08T07:39:24;16.50;87.80
23560;DHT22;11958;50.836;4.438;2023-05-08T07:41:49;16.50;87.60
23560;DHT22;11958;50.836;4.438;2023-05-08T07:44:15;16.50;88.20
23560;DHT22;11958;50.836;4.438;2023-05-08T07:46:41;16.60;87.60
23560;DHT22;11958;50.836;4.438;2023-05-08T07:49:06;17.00;86.90
23560;DHT22;11958;50.836;4.438;2023-05-08T07:51:32;16.70;86.70
23560;DHT22;11958;50.836;4.438;2023-05-08T07:53:58;16.60;87.30
23560;DHT22;11958;50.836;4.438;2023-05-08T07:56:23;16.50;87.80
23560;DHT22;11958;50.836;4.438;2023-05-08T07:58:49;16.70;87.70
23560;DHT22;11958;50.836;4.438;2023-05-08T08:01:15;16.80;87.10
23560;DHT22;11958;50.836;4.438;2023-05-08T08:03:45;16.90;86.80
23560;DHT22;11958;50.836;4.438;2023-05-08T08:06:11;16.80;86.40
23560;DHT22;11958;50.836;4.438;2023-05-08T08:08:37;17.30;85.10
23560;DHT22;11958;50.836;4.438;2023-05-08T08:11:04;17.20;84.20
23560;DHT22;11958;50.836;4.438;2023-05-08T08:13:30;17.20;85.00
23560;DHT22;11958;50.836;4.438;2023-05-08T08:15:57;17.10;85.60
23560;DHT22;11958;50.836;4.438;2023-05-08T08:18:23;17.20;84.20
23560;DHT22;11958;50.836;4.438;2023-05-08T08:20:48;17.80;84.10
23560;DHT22;11958;50.836;4.438;2023-05-08T08:23:14;18.10;82.40
23560;DHT22;11958;50.836;4.438;2023-05-08T08:25:39;18.30;80.60
23560;DHT22;11958;50.836;4.438;2023-05-08T08:28:05;18.60;79.10
23560;DHT22;11958;50.836;4.438;2023-05-08T08:30:31;18.90;77.70
23560;DHT22;11958;50.836;4.438;2023-05-08T08:35:32;19.00;77.00
23560;DHT22;11958;50.836;4.438;2023-05-08T08:37:57;18.20;78.60
23560;DHT22;11958;50.836;4.438;2023-05-08T08:40:23;17.80;81.80
23560;DHT22;11958;50.836;4.438;2023-05-08T08:42:49;17.90;82.60
23560;DHT22;11958;50.836;4.438;2023-05-08T08:45:15;18.20;80.20
23560;DHT22;11958;50.836;4.438;2023-05-08T08:47:43;18.10;81.70
23560;DHT22;11958;50.836;4.438;2023-05-08T08:50:11;18.00;82.20
23560;DHT22;11958;50.836;4.438;2023-05-08T08:53:00;18.10;82.30
23560;DHT22;11958;50.836;4.438;2023-05-08T08:55:29;18.30;79.70
23560;DHT22;11958;50.836;4.438;2023-05-08T09:00:40;18.00;81.70
23560;DHT22;11958;50.836;4.438;2023-05-08T09:03:06;18.10;81.20
23560;DHT22;11958;50.836;4.438;2023-05-08T09:05:32;18.30;79.30
23560;DHT22;11958;50.836;4.438;2023-05-08T09:07:58;18.20;80.60
23560;DHT22;11958;50.836;4.438;2023-05-08T09:10:25;18.30;80.00
23560;DHT22;11958;50.836;4.438;2023-05-08T09:12:51;18.50;79.60
23560;DHT22;11958;50.836;4.438;2023-05-08T09:15:18;18.60;79.40
23560;DHT22;11958;50.836;4.438;2023-05-08T09:17:44;18.80;78.90
23560;DHT22;11958;50.836;4.438;2023-05-08T09:20:10;19.20;77.50
23560;DHT22;11958;50.836;4.438;2023-05-08T09:22:39;19.40;77.20
23560;DHT22;11958;50.836;4.438;2023-05-08T09:25:05;19.40;76.00
23560;DHT22;11958;50.836;4.438;2023-05-08T09:27:31;19.60;75.80
23560;DHT22;11958;50.836;4.438;2023-05-08T09:29:59;19.70;74.80
23560;DHT22;11958;50.836;4.438;2023-05-08T09:32:27;19.70;75.30
23560;DHT22;11958;50.836;4.438;2023-05-08T09:34:53;19.60;75.10
23560;DHT22;11958;50.836;4.438;2023-05-08T09:37:18;19.50;74.70
23560;DHT22;11958;50.836;4.438;2023-05-08T09:39:44;19.30;75.90
23560;DHT22;11958;50.836;4.438;2023-05-08T09:42:12;19.50;76.00
23560;DHT22;11958;50.836;4.438;2023-05-08T09:44:47;19.60;74.10
23560;DHT22;11958;50.836;4.438;2023-05-08T09:50:09;19.30;74.30
23560;DHT22;11958;50.836;4.438;2023-05-08T09:52:36;19.50;74.50
23560;DHT22;11958;50.836;4.438;2023-05-08T10:01:54;20.20;70.20
23560;DHT22;11958;50.836;4.438;2023-05-08T10:04:40;20.60;70.60
23560;DHT22;11958;50.836;4.438;2023-05-08T10:07:06;20.60;69.50
23560;DHT22;11958;50.836;4.438;2023-05-08T10:09:31;20.40;70.80
23560;DHT22;11958;50.836;4.438;2023-05-08T10:11:57;20.50;71.20
23560;DHT22;11958;50.836;4.438;2023-05-08T10:14:24;20.70;70.90
23560;DHT22;11958;50.836;4.438;2023-05-08T10:16:53;20.40;71.30
23560;DHT22;11958;50.836;4.438;2023-05-08T10:19:21;20.80;67.90
23560;DHT22;11958;50.836;4.438;2023-05-08T10:21:53;20.80;69.10
23560;DHT22;11958;50.836;4.438;2023-05-08T10:24:26;20.70;69.60
23560;DHT22;11958;50.836;4.438;2023-05-08T10:27:07;20.70;69.00
23560;DHT22;11958;50.836;4.438;2023-05-08T10:29:46;20.50;67.60
23560;DHT22;11958;50.836;4.438;2023-05-08T10:32:18;20.50;68.00
23560;DHT22;11958;50.836;4.438;2023-05-08T10:34:48;20.70;68.40
23560;DHT22;11958;50.836;4.438;2023-05-08T10:37:16;20.60;68.10
23560;DHT22;11958;50.836;4.438;2023-05-08T10:39:43;20.20;68.60
23560;DHT22;11958;50.836;4.438;2023-05-08T10:42:11;20.40;69.10
23560;DHT22;11958;50.836;4.438;2023-05-08T10:44:39;20.20;68.60
23560;DHT22;11958;50.836;4.438;2023-05-08T10:50:15;20.90;67.60
23560;DHT22;11958;50.836;4.438;2023-05-08T10:52:53;21.40;66.30
23560;DHT22;11958;50.836;4.438;2023-05-08T10:55:22;21.70;64.30
23560;DHT22;11958;50.836;4.438;2023-05-08T11:03:18;20.90;66.70
23560;DHT22;11958;50.836;4.438;2023-05-08T11:05:49;21.30;65.00
23560;DHT22;11958;50.836;4.438;2023-05-08T11:08:17;21.70;62.80
23560;DHT22;11958;50.836;4.438;2023-05-08T11:15:58;22.00;60.90
23560;DHT22;11958;50.836;4.438;2023-05-08T11:21:27;22.40;58.30
23560;DHT22;11958;50.836;4.438;2023-05-08T11:24:09;22.70;58.00
23560;DHT22;11958;50.836;4.438;2023-05-08T11:26:39;22.80;57.90
23560;DHT22;11958;50.836;4.438;2023-05-08T11:29:15;22.70;58.40
23560;DHT22;11958;50.836;4.438;2023-05-08T11:31:56;22.60;57.20
23560;DHT22;11958;50.836;4.438;2023-05-08T11:37:16;22.00;57.10
23560;DHT22;11958;50.836;4.438;2023-05-08T11:39:42;21.80;58.70
23560;DHT22;11958;50.836;4.438;2023-05-08T11:45:12;21.80;59.70
23560;DHT22;11958;50.836;4.438;2023-05-08T11:47:40;22.20;58.80
23560;DHT22;11958;50.836;4.438;2023-05-08T11:50:13;22.40;59.20
23560;DHT22;11958;50.836;4.438;2023-05-08T11:52:40;22.60;58.00
23560;DHT22;11958;50.836;4.438;2023-05-08T11:55:08;21.80;58.50
23560;DHT22;11958;50.836;4.438;2023-05-08T11:57:35;21.50;59.10
23560;DHT22;11958;50.836;4.438;2023-05-08T12:00:21;21.60;59.90
23560;DHT22;11958;50.836;4.438;2023-05-08T12:02:47;21.10;61.80
23560;DHT22;11958;50.836;4.438;2023-05-08T12:05:12;21.50;61.80
23560;DHT22;11958;50.836;4.438;2023-05-08T12:07:45;21.50;61.20
23560;DHT22;11958;50.836;4.438;2023-05-08T12:10:15;21.70;62.50
23560;DHT22;11958;50.836;4.438;2023-05-08T12:12:42;21.80;59.70
23560;DHT22;11958;50.836;4.438;2023-05-08T12:15:10;22.60;56.80
23560;DHT22;11958;50.836;4.438;2023-05-08T12:17:36;22.50;57.70
23560;DHT22;11958;50.836;4.438;2023-05-08T12:20:15;23.10;55.00
23560;DHT22;11958;50.836;4.438;2023-05-08T12:22:48;23.10;54.70
23560;DHT22;11958;50.836;4.438;2023-05-08T12:25:18;22.40;56.70
23560;DHT22;11958;50.836;4.438;2023-05-08T12:27:44;22.00;58.60
23560;DHT22;11958;50.836;4.438;2023-05-08T12:30:12;22.30;58.70
23560;DHT22;11958;50.836;4.438;2023-05-08T12:32:41;22.80;55.80
23560;DHT22;11958;50.836;4.438;2023-05-08T12:35:08;22.40;58.00
23560;DHT22;11958;50.836;4.438;2023-05-08T12:37:34;22.80;55.50
23560;DHT22;11958;50.836;4.438;2023-05-08T12:40:01;22.80;55.80
23560;DHT22;11958;50.836;4.438;2023-05-08T12:42:48;23.40;53.40
23560;DHT22;11958;50.836;4.438;2023-05-08T12:45:21;23.40;53.90
23560;DHT22;11958;50.836;4.438;2023-05-08T12:47:48;23.10;53.00
23560;DHT22;11958;50.836;4.438;2023-05-08T12:50:16;23.30;55.70
23560;DHT22;11958;50.836;4.438;2023-05-08T12:52:43;23.40;54.40
23560;DHT22;11958;50.836;4.438;2023-05-08T13:00:45;22.90;54.20
23560;DHT22;11958;50.836;4.438;2023-05-08T13:03:13;23.20;54.50
23560;DHT22;11958;50.836;4.438;2023-05-08T13:05:45;23.10;55.10
23560;DHT22;11958;50.836;4.438;2023-05-08T13:08:11;23.50;54.20
23560;DHT22;11958;50.836;4.438;2023-05-08T13:13:09;22.80;54.50
23560;DHT22;11958;50.836;4.438;2023-05-08T13:15:35;22.80;53.80
23560;DHT22;11958;50.836;4.438;2023-05-08T13:18:01;23.00;55.70
23560;DHT22;11958;50.836;4.438;2023-05-08T13:20:26;23.20;52.10
23560;DHT22;11958;50.836;4.438;2023-05-08T13:22:53;23.30;52.50
23560;DHT22;11958;50.836;4.438;2023-05-08T13:25:18;23.40;50.60
23560;DHT22;11958;50.836;4.438;2023-05-08T13:27:44;23.10;50.90
23560;DHT22;11958;50.836;4.438;2023-05-08T13:30:11;23.10;53.60
23560;DHT22;11958;50.836;4.438;2023-05-08T13:32:37;23.30;53.20
23560;DHT22;11958;50.836;4.438;2023-05-08T13:35:03;23.40;52.10
23560;DHT22;11958;50.836;4.438;2023-05-08T13:37:29;23.30;51.30
23560;DHT22;11958;50.836;4.438;2023-05-08T13:39:55;22.80;54.20
23560;DHT22;11958;50.836;4.438;2023-05-08T13:42:20;22.80;54.60
23560;DHT22;11958;50.836;4.438;2023-05-08T13:44:46;22.60;54.10
23560;DHT22;11958;50.836;4.438;2023-05-08T13:47:12;22.40;56.20
23560;DHT22;11958;50.836;4.438;2023-05-08T13:49:37;22.70;56.30
23560;DHT22;11958;50.836;4.438;2023-05-08T13:52:03;22.70;54.80
23560;DHT22;11958;50.836;4.438;2023-05-08T13:54:29;22.00;56.90
23560;DHT22;11958;50.836;4.438;2023-05-08T13:56:55;21.60;58.80
23560;DHT22;11958;50.836;4.438;2023-05-08T13:59:20;21.60;58.50
23560;DHT22;11958;50.836;4.438;2023-05-08T14:01:46;21.50;60.30
23560;DHT22;11958;50.836;4.438;2023-05-08T14:04:11;21.40;59.40
23560;DHT22;11958;50.836;4.438;2023-05-08T14:06:37;21.50;58.40
23560;DHT22;11958;50.836;4.438;2023-05-08T14:09:03;21.50;58.40
23560;DHT22;11958;50.836;4.438;2023-05-08T14:11:29;21.40;59.60
23560;DHT22;11958;50.836;4.438;2023-05-08T14:13:54;21.30;60.80
23560;DHT22;11958;50.836;4.438;2023-05-08T14:16:20;21.10;61.70
23560;DHT22;11958;50.836;4.438;2023-05-08T14:18:46;20.80;61.20
23560;DHT22;11958;50.836;4.438;2023-05-08T14:21:12;20.90;62.70
23560;DHT22;11958;50.836;4.438;2023-05-08T14:23:37;21.30;61.40
23560;DHT22;11958;50.836;4.438;2023-05-08T14:26:03;21.30;61.30
23560;DHT22;11958;50.836;4.438;2023-05-08T14:28:29;21.90;58.90
23560;DHT22;11958;50.836;4.438;2023-05-08T14:30:55;22.20;56.70
23560;DHT22;11958;50.836;4.438;2023-05-08T14:33:21;22.80;56.70
23560;DHT22;11958;50.836;4.438;2023-05-08T14:35:46;23.20;53.90
23560;DHT22;11958;50.836;4.438;2023-05-08T14:38:13;23.50;52.50
23560;DHT22;11958;50.836;4.438;2023-05-08T14:40:39;23.50;52.00
23560;DHT22;11958;50.836;4.438;2023-05-08T14:43:06;23.30;54.00
23560;DHT22;11958;50.836;4.438;2023-05-08T14:45:31;22.90;56.00
23560;DHT22;11958;50.836;4.438;2023-05-08T14:50:48;22.60;54.80
23560;DHT22;11958;50.836;4.438;2023-05-08T14:53:14;23.00;52.30
23560;DHT22;11958;50.836;4.438;2023-05-08T14:55:46;22.80;55.10
23560;DHT22;11958;50.836;4.438;2023-05-08T14:58:12;23.00;55.00
23560;DHT22;11958;50.836;4.438;2023-05-08T15:00:40;22.80;55.30
23560;DHT22;11958;50.836;4.438;2023-05-08T15:03:06;22.70;54.90
23560;DHT22;11958;50.836;4.438;2023-05-08T15:05:32;22.30;56.80
23560;DHT22;11958;50.836;4.438;2023-05-08T15:07:57;22.00;57.00
23560;DHT22;11958;50.836;4.438;2023-05-08T15:10:23;22.00;57.90
23560;DHT22;11958;50.836;4.438;2023-05-08T15:12:49;22.20;56.80
23560;DHT22;11958;50.836;4.438;2023-05-08T15:20:58;21.80;58.40
23560;DHT22;11958;50.836;4.438;2023-05-08T15:23:24;21.70;58.10
23560;DHT22;11958;50.836;4.438;2023-05-08T15:25:50;21.70;57.70
23560;DHT22;11958;50.836;4.438;2023-05-08T15:28:16;21.50;57.60
23560;DHT22;11958;50.836;4.438;2023-05-08T15:30:45;21.30;58.40
23560;DHT22;11958;50.836;4.438;2023-05-08T15:33:11;21.10;59.00
23560;DHT22;11958;50.836;4.438;2023-05-08T15:35:37;21.00;59.10
23560;DHT22;11958;50.836;4.438;2023-05-08T15:38:02;20.90;59.90
23560;DHT22;11958;50.836;4.438;2023-05-08T15:40:34;20.90;59.40
23560;DHT22;11958;50.836;4.438;2023-05-08T15:43:00;20.60;62.20
23560;DHT22;11958;50.836;4.438;2023-05-08T15:45:25;20.50;61.60
23560;DHT22;11958;50.836;4.438;2023-05-08T15:47:51;20.50;63.00
23560;DHT22;11958;50.836;4.438;2023-05-08T15:50:16;20.30;64.90
23560;DHT22;11958;50.836;4.438;2023-05-08T15:52:42;20.30;63.90
23560;DHT22;11958;50.836;4.438;2023-05-08T15:55:08;20.60;65.60
23560;DHT22;11958;50.836;4.438;2023-05-08T15:57:34;20.60;66.20
23560;DHT22;11958;50.836;4.438;2023-05-08T15:59:59;20.20;67.30
23560;DHT22;11958;50.836;4.438;2023-05-08T16:02:25;20.30;65.70
23560;DHT22;11958;50.836;4.438;2023-05-08T16:04:51;20.40;65.60
23560;DHT22;11958;50.836;4.438;2023-05-08T16:07:22;20.10;67.60
23560;DHT22;11958;50.836;4.438;2023-05-08T16:09:48;19.90;69.10
23560;DHT22;11958;50.836;4.438;2023-05-08T16:12:14;20.20;68.50
23560;DHT22;11958;50.836;4.438;2023-05-08T16:14:39;20.00;68.70
23560;DHT22;11958;50.836;4.438;2023-05-08T16:17:06;19.90;68.40
23560;DHT22;11958;50.836;4.438;2023-05-08T16:19:36;20.00;67.90
23560;DHT22;11958;50.836;4.438;2023-05-08T16:22:02;20.20;67.80
23560;DHT22;11958;50.836;4.438;2023-05-08T16:24:29;20.60;65.30
23560;DHT22;11958;50.836;4.438;2023-05-08T16:26:55;20.10;66.60
23560;DHT22;11958;50.836;4.438;2023-05-08T16:29:21;19.80;67.80
23560;DHT22;11958;50.836;4.438;2023-05-08T16:31:47;20.10;67.30
23560;DHT22;11958;50.836;4.438;2023-05-08T16:34:12;20.00;65.70
23560;DHT22;11958;50.836;4.438;2023-05-08T16:36:38;20.00;66.50
23560;DHT22;11958;50.836;4.438;2023-05-08T16:39:03;20.10;67.30
23560;DHT22;11958;50.836;4.438;2023-05-08T16:41:29;20.20;66.10
23560;DHT22;11958;50.836;4.438;2023-05-08T16:43:55;20.10;66.80
23560;DHT22;11958;50.836;4.438;2023-05-08T16:46:20;20.30;66.40
23560;DHT22;11958;50.836;4.438;2023-05-08T16:48:46;20.30;67.20
23560;DHT22;11958;50.836;4.438;2023-05-08T16:51:13;20.00;67.70
23560;DHT22;11958;50.836;4.438;2023-05-08T16:53:46;20.00;68.10
23560;DHT22;11958;50.836;4.438;2023-05-08T16:56:12;19.90;67.70
23560;DHT22;11958;50.836;4.438;2023-05-08T16:58:37;19.80;68.00
23560;DHT22;11958;50.836;4.438;2023-05-08T17:01:03;19.90;67.20
23560;DHT22;11958;50.836;4.438;2023-05-08T17:03:29;19.60;67.80
23560;DHT22;11958;50.836;4.438;2023-05-08T17:05:55;19.60;66.60